createdAt,value
2023-02-17T00:01:33.406Z,100665.00
2023-02-17T00:04:11.501Z,100667.09
2023-02-17T00:06:47.179Z,100665.28
2023-02-17T00:09:20.001Z,100658.50
2023-02-17T00:11:56.234Z,100648.91
2023-02-17T00:14:33.966Z,100659.63
2023-02-17T00:17:17.226Z,100652.63
2023-02-17T00:19:51.926Z,100650.81
2023-02-17T00:22:30.089Z,100652.75
2023-02-17T00:25:05.134Z,100660.25
2023-02-17T00:27:49.475Z,100651.78
2023-02-17T00:30:21.840Z,100655.16
2023-02-17T00:33:00.383Z,100659.44
2023-02-17T00:35:36.033Z,100648.06
2023-02-17T00:38:11.265Z,100660.22
2023-02-17T00:40:45.349Z,100654.25
2023-02-17T00:43:22.955Z,100649.91
2023-02-17T00:46:04.550Z,100654.13
2023-02-17T00:48:39.317Z,100655.75
2023-02-17T00:51:18.344Z,100655.75
2023-02-17T00:53:48.516Z,100649.47
2023-02-17T00:56:31.824Z,100650.94
2023-02-17T00:59:09.449Z,100646.81
2023-02-17T01:01:51.362Z,100651.25
2023-02-17T01:04:26.623Z,100640.19
2023-02-17T01:06:59.529Z,100644.59
2023-02-17T01:09:37.712Z,100641.72
2023-02-17T01:12:10.466Z,100646.81
2023-02-17T01:14:42.239Z,100645.59
2023-02-17T01:17:17.370Z,100640.72
2023-02-17T01:19:55.349Z,100644.34
2023-02-17T01:22:30.570Z,100651.13
2023-02-17T01:25:05.508Z,100638.56
2023-02-17T01:27:38.890Z,100640.38
2023-02-17T01:30:16.705Z,100630.63
2023-02-17T01:32:53.514Z,100636.97
2023-02-17T01:35:34.102Z,100631.53
2023-02-17T01:38:15.120Z,100632.25
2023-02-17T01:40:55.933Z,100630.44
2023-02-17T01:43:29.476Z,100627.94
2023-02-17T01:46:11.978Z,100621.94
2023-02-17T01:48:53.685Z,100614.72
2023-02-17T01:51:35.484Z,100619.34
2023-02-17T01:54:21.060Z,100616.94
2023-02-17T01:56:59.390Z,100610.31
2023-02-17T01:59:37.728Z,100610.19
2023-02-17T02:02:16.559Z,100603.22
2023-02-17T02:05:00.739Z,100606.38
2023-02-17T02:07:36.474Z,100595.78
2023-02-17T02:10:15.582Z,100599.28
2023-02-17T02:12:45.636Z,100595.19
2023-02-17T02:15:28.096Z,100595.06
2023-02-17T02:18:15.550Z,100592.53
2023-02-17T02:21:18.531Z,100599.03
2023-02-17T02:24:31.300Z,100600.81
2023-02-17T02:27:26.538Z,100599.34
2023-02-17T02:30:31.459Z,100582.22
2023-02-17T02:33:23.504Z,100578.50
2023-02-17T02:36:06.403Z,100580.31
2023-02-17T02:38:58.870Z,100581.75
2023-02-17T02:41:37.340Z,100578.69
2023-02-17T02:44:19.322Z,100579.81
2023-02-17T02:47:24.878Z,100584.28
2023-02-17T02:49:58.380Z,100589.44
2023-02-17T02:52:52.343Z,100577.66
2023-02-17T02:55:57.826Z,100575.50
2023-02-17T02:59:07.471Z,100567.31
2023-02-17T03:01:50.833Z,100571.19
2023-02-17T03:04:36.329Z,100575.75
2023-02-17T03:07:59.752Z,100584.94
2023-02-17T03:10:35.865Z,100587.41
2023-02-17T03:13:26.792Z,100586.53
2023-02-17T03:16:02.220Z,100600.69
2023-02-17T03:18:38.620Z,100595.94
2023-02-17T03:21:19.111Z,100591.00
2023-02-17T03:24:00.794Z,100603.72
2023-02-17T03:26:34.195Z,100599.81
2023-02-17T03:29:09.456Z,100603.41
2023-02-17T03:31:44.686Z,100595.88
2023-02-17T03:34:17.481Z,100598.84
2023-02-17T03:36:49.690Z,100612.59
2023-02-17T03:39:32.357Z,100605.72
2023-02-17T03:42:12.767Z,100611.41
2023-02-17T03:44:48.082Z,100627.56
2023-02-17T03:47:19.899Z,100621.41
2023-02-17T03:49:59.731Z,100615.31
2023-02-17T03:52:34.754Z,100614.03
2023-02-17T03:55:07.651Z,100611.16
2023-02-17T03:57:40.945Z,100596.00
2023-02-17T04:00:14.031Z,100602.00
2023-02-17T04:02:47.055Z,100594.97
2023-02-17T04:05:27.472Z,100599.09
2023-02-17T04:08:10.141Z,100605.91
2023-02-17T04:10:42.930Z,100614.00
2023-02-17T04:13:20.619Z,100617.44
2023-02-17T04:16:02.446Z,100608.88
2023-02-17T04:18:37.650Z,100601.00
2023-02-17T04:21:11.059Z,100588.41
2023-02-17T04:23:49.041Z,100584.81
2023-02-17T04:26:21.881Z,100580.84
2023-02-17T04:28:58.334Z,100580.31
2023-02-17T04:31:44.765Z,100582.97
2023-02-17T04:34:24.969Z,100587.94
2023-02-17T04:37:03.225Z,100569.06
2023-02-17T04:39:41.518Z,100571.13
2023-02-17T04:42:16.041Z,100562.94
2023-02-17T04:44:53.336Z,100564.53
2023-02-17T04:47:26.348Z,100561.88
2023-02-17T04:49:57.938Z,100563.44
2023-02-17T04:52:33.785Z,100561.63
2023-02-17T04:55:09.485Z,100564.50
2023-02-17T04:57:44.283Z,100561.75
2023-02-17T05:00:19.226Z,100565.97
2023-02-17T05:02:59.716Z,100568.84
2023-02-17T05:05:40.895Z,100571.28
2023-02-17T05:08:16.337Z,100578.59
2023-02-17T05:10:49.348Z,100575.13
2023-02-17T05:13:28.333Z,100564.88
2023-02-17T05:15:58.423Z,100566.78
2023-02-17T05:18:30.679Z,100569.09
2023-02-17T05:21:08.308Z,100572.91
2023-02-17T05:23:55.695Z,100583.31
2023-02-17T05:26:24.744Z,100588.34
2023-02-17T05:29:07.927Z,100569.09
2023-02-17T05:31:52.254Z,100574.16
2023-02-17T05:34:25.020Z,100590.31
2023-02-17T05:37:05.594Z,100582.47
2023-02-17T05:39:42.341Z,100587.16
2023-02-17T05:42:20.250Z,100575.56
2023-02-17T05:44:55.300Z,100593.44
2023-02-17T05:47:32.902Z,100588.00
2023-02-17T05:50:14.510Z,100597.50
2023-02-17T05:52:47.613Z,100582.69
2023-02-17T05:55:22.250Z,100590.41
2023-02-17T05:58:02.452Z,100593.63
2023-02-17T06:00:38.318Z,100590.72
2023-02-17T06:03:10.388Z,100589.97
2023-02-17T06:05:53.497Z,100595.97
2023-02-17T06:08:34.117Z,100595.97
2023-02-17T06:11:12.602Z,100603.63
2023-02-17T06:13:45.462Z,100598.56
2023-02-17T06:16:27.229Z,100587.94
2023-02-17T06:19:07.276Z,100584.13
2023-02-17T06:21:42.378Z,100592.00
2023-02-17T06:24:14.713Z,100582.09
2023-02-17T06:26:54.300Z,100597.03
2023-02-17T06:29:24.466Z,100606.34
2023-02-17T06:32:03.375Z,100605.72
2023-02-17T06:34:44.719Z,100608.22
2023-02-17T06:37:22.963Z,100606.81
2023-02-17T06:39:58.260Z,100616.19
2023-02-17T06:42:31.106Z,100619.13
2023-02-17T06:45:13.229Z,100618.66
2023-02-17T06:47:56.542Z,100616.88
2023-02-17T06:50:38.413Z,100612.50
2023-02-17T06:53:16.744Z,100615.06
2023-02-17T06:55:57.518Z,100621.91
2023-02-17T06:58:32.754Z,100624.94
2023-02-17T07:01:15.421Z,100626.66
2023-02-17T07:03:48.622Z,100618.16
2023-02-17T07:06:26.126Z,100627.59
2023-02-17T07:09:04.459Z,100622.84
2023-02-17T07:11:45.282Z,100627.19
2023-02-17T07:14:19.876Z,100627.69
2023-02-17T07:17:01.137Z,100631.38
2023-02-17T07:19:41.779Z,100638.69
2023-02-17T07:22:25.671Z,100633.00
2023-02-17T07:25:01.482Z,100634.00
2023-02-17T07:27:43.249Z,100630.53
2023-02-17T07:30:16.203Z,100615.84
2023-02-17T07:32:52.329Z,100624.97
2023-02-17T07:35:33.128Z,100614.44
2023-02-17T07:38:09.303Z,100612.78
2023-02-17T07:40:44.463Z,100606.34
2023-02-17T07:43:19.567Z,100597.25
2023-02-17T07:46:00.256Z,100590.34
2023-02-17T07:48:36.046Z,100582.34
2023-02-17T07:51:18.846Z,100578.84
2023-02-17T07:53:55.117Z,100590.34
2023-02-17T07:56:30.132Z,100583.88
2023-02-17T07:59:10.855Z,100582.22
2023-02-17T08:01:49.975Z,100593.81
2023-02-17T08:04:36.293Z,100589.72
2023-02-17T08:07:17.027Z,100585.38
2023-02-17T08:10:16.635Z,100592.59
2023-02-17T08:13:09.683Z,100597.13
2023-02-17T08:15:44.930Z,100603.09
2023-02-17T08:18:36.435Z,100600.06
2023-02-17T08:21:09.297Z,100587.16
2023-02-17T08:23:47.278Z,100591.31
2023-02-17T08:26:26.019Z,100604.50
2023-02-17T08:29:06.249Z,100617.44
2023-02-17T08:31:47.586Z,100611.63
2023-02-17T08:34:22.289Z,100618.72
2023-02-17T08:36:59.549Z,100622.16
2023-02-17T08:39:35.611Z,100619.28
2023-02-17T08:42:13.024Z,100608.16
2023-02-17T08:44:51.094Z,100605.00
2023-02-17T08:47:28.961Z,100607.13
2023-02-17T08:50:07.303Z,100607.53
2023-02-17T08:52:44.622Z,100597.50
2023-02-17T08:55:22.955Z,100585.44
2023-02-17T08:57:58.369Z,100609.91
2023-02-17T09:00:39.106Z,100614.75
2023-02-17T09:03:22.776Z,100614.16
2023-02-17T09:06:07.419Z,100614.25
2023-02-17T09:08:44.248Z,100613.34
2023-02-17T09:11:29.302Z,100620.47
2023-02-17T09:14:01.605Z,100610.84
2023-02-17T09:16:41.292Z,100611.97
2023-02-17T09:19:19.904Z,100612.50
2023-02-17T09:21:55.506Z,100604.81
2023-02-17T09:24:34.246Z,100599.44
2023-02-17T09:27:14.966Z,100602.06
2023-02-17T09:29:52.691Z,100600.31
2023-02-17T09:32:35.784Z,100609.59
2023-02-17T09:35:22.517Z,100609.84
2023-02-17T09:38:09.321Z,100611.13
2023-02-17T09:40:57.559Z,100601.03
2023-02-17T09:43:42.988Z,100606.81
2023-02-17T09:46:35.011Z,100602.69
2023-02-17T09:49:23.940Z,100596.03
2023-02-17T09:52:15.410Z,100606.31
2023-02-17T09:55:11.451Z,100595.81
2023-02-17T09:58:22.637Z,100595.41
2023-02-17T10:01:12.346Z,100584.25
2023-02-17T10:03:58.716Z,100588.81
2023-02-17T10:06:44.569Z,100584.50
2023-02-17T10:09:49.259Z,100581.31
2023-02-17T10:12:38.842Z,100576.50
2023-02-17T10:15:19.188Z,100569.25
2023-02-17T10:18:25.452Z,100562.97
2023-02-17T10:21:22.181Z,100558.47
2023-02-17T10:23:55.379Z,100549.03
2023-02-17T10:26:51.842Z,100544.03
2023-02-17T10:30:10.846Z,100527.94
2023-02-17T10:33:03.276Z,100539.66
2023-02-17T10:36:22.313Z,100540.94
2023-02-17T10:39:30.007Z,100520.38
2023-02-17T10:42:31.558Z,100523.53
2023-02-17T10:45:36.391Z,100521.91
2023-02-17T10:48:51.339Z,100518.97
2023-02-17T10:51:37.235Z,100504.81
2023-02-17T10:54:31.556Z,100499.41
2023-02-17T10:57:08.185Z,100492.16
2023-02-17T10:59:52.486Z,100460.91
2023-02-17T11:02:49.422Z,100468.19
2023-02-17T11:05:42.087Z,100469.63
2023-02-17T11:08:38.921Z,100465.66
2023-02-17T11:11:30.161Z,100467.56
2023-02-17T11:14:22.634Z,100471.94
2023-02-17T11:17:30.454Z,100475.56
2023-02-17T11:20:14.074Z,100465.63
2023-02-17T11:23:13.460Z,100475.69
2023-02-17T11:26:07.409Z,100472.81
2023-02-17T11:28:51.760Z,100470.50
2023-02-17T11:31:42.837Z,100471.78
2023-02-17T11:34:31.957Z,100462.25
2023-02-17T11:37:32.361Z,100457.03
2023-02-17T11:40:44.636Z,100459.72
2023-02-17T11:43:28.936Z,100453.50
2023-02-17T11:46:26.430Z,100447.22
2023-02-17T11:49:25.665Z,100439.91
2023-02-17T11:52:23.094Z,100440.75
2023-02-17T11:55:14.837Z,100435.34
2023-02-17T11:58:09.652Z,100440.09
2023-02-17T12:00:56.950Z,100426.56
2023-02-17T12:04:03.692Z,100431.97
2023-02-17T12:06:56.728Z,100418.28
2023-02-17T12:10:00.109Z,100419.28
2023-02-17T12:12:56.375Z,100406.38
2023-02-17T12:15:56.420Z,100409.09
2023-02-17T12:19:02.505Z,100409.09
2023-02-17T12:21:56.798Z,100409.91
2023-02-17T12:25:27.672Z,100415.13
2023-02-17T12:28:34.992Z,100413.47
2023-02-17T12:31:28.869Z,100416.19
2023-02-17T12:34:51.372Z,100415.59
2023-02-17T12:37:49.663Z,100419.97
2023-02-17T12:40:44.130Z,100420.19
2023-02-17T12:43:47.968Z,100420.38
2023-02-17T12:46:34.377Z,100407.66
2023-02-17T12:49:20.292Z,100413.31
2023-02-17T12:52:07.293Z,100397.03
2023-02-17T12:55:05.465Z,100389.56
2023-02-17T12:57:56.284Z,100387.28
2023-02-17T13:00:55.435Z,100394.34
2023-02-17T13:03:42.860Z,100387.69
2023-02-17T13:06:44.113Z,100396.25
2023-02-17T13:10:02.331Z,100396.69
2023-02-17T13:12:44.634Z,100397.09
2023-02-17T13:15:52.805Z,100397.44
2023-02-17T13:18:42.958Z,100394.47
2023-02-17T13:21:49.323Z,100390.34
2023-02-17T13:24:54.960Z,100391.06
2023-02-17T13:27:40.887Z,100396.50
2023-02-17T13:30:54.220Z,100406.84
2023-02-17T13:33:42.987Z,100406.28
2023-02-17T13:36:45.523Z,100410.03
2023-02-17T13:39:46.494Z,100408.00
2023-02-17T13:42:44.194Z,100400.50
2023-02-17T13:45:40.673Z,100394.31
2023-02-17T13:48:59.892Z,100386.59
2023-02-17T13:51:36.687Z,100380.81
2023-02-17T13:54:25.166Z,100380.59
2023-02-17T13:57:14.396Z,100378.75
2023-02-17T13:59:55.306Z,100376.47
2023-02-17T14:02:39.777Z,100374.59
2023-02-17T14:05:48.340Z,100375.63
2023-02-17T14:08:56.016Z,100376.22
2023-02-17T14:11:35.233Z,100363.97
2023-02-17T14:14:22.237Z,100364.75
2023-02-17T14:17:10.107Z,100367.63
2023-02-17T14:20:00.060Z,100364.47
2023-02-17T14:22:48.718Z,100368.75
2023-02-17T14:25:36.744Z,100368.75
2023-02-17T14:28:29.305Z,100374.75
2023-02-17T14:31:27.335Z,100357.16
2023-02-17T14:34:05.369Z,100362.22
2023-02-17T14:37:01.306Z,100350.06
2023-02-17T14:39:45.344Z,100353.53
2023-02-17T14:42:27.424Z,100363.47
2023-02-17T14:45:10.622Z,100349.66
2023-02-17T14:47:59.902Z,100350.03
2023-02-17T14:50:42.377Z,100348.00
2023-02-17T14:53:36.253Z,100344.06
2023-02-17T14:56:20.620Z,100335.94
2023-02-17T14:59:20.419Z,100340.06
2023-02-17T15:02:12.538Z,100323.38
2023-02-17T15:04:53.575Z,100327.72
2023-02-17T15:07:40.930Z,100326.44
2023-02-17T15:10:29.125Z,100313.75
2023-02-17T15:13:19.907Z,100313.13
2023-02-17T15:16:09.572Z,100307.06
2023-02-17T15:18:50.045Z,100311.25
2023-02-17T15:21:42.713Z,100308.63
2023-02-17T15:24:30.503Z,100296.25
2023-02-17T15:27:28.133Z,100298.69
2023-02-17T15:30:08.980Z,100298.75
2023-02-17T15:32:55.495Z,100294.56
2023-02-17T15:35:36.370Z,100301.34
2023-02-17T15:38:15.742Z,100293.97
2023-02-17T15:40:56.764Z,100288.97
2023-02-17T15:43:48.519Z,100290.13
2023-02-17T15:46:58.364Z,100287.94
2023-02-17T15:49:43.607Z,100292.03
2023-02-17T15:52:38.616Z,100290.97
2023-02-17T15:55:24.850Z,100289.84
2023-02-17T15:58:10.814Z,100290.47
2023-02-17T16:00:52.088Z,100293.25
2023-02-17T16:03:41.186Z,100278.66
2023-02-17T16:06:24.236Z,100283.16
2023-02-17T16:09:23.936Z,100283.50
2023-02-17T16:12:08.178Z,100283.94
2023-02-17T16:14:52.347Z,100277.25
2023-02-17T16:17:39.204Z,100283.38
2023-02-17T16:20:28.981Z,100270.13
2023-02-17T16:23:13.173Z,100267.34
2023-02-17T16:26:01.916Z,100262.66
2023-02-17T16:28:45.816Z,100271.03
2023-02-17T16:31:25.888Z,100272.06
2023-02-17T16:34:01.688Z,100258.78
2023-02-17T16:36:38.010Z,100258.63
2023-02-17T16:39:18.028Z,100247.22
2023-02-17T16:42:04.493Z,100244.16
2023-02-17T16:44:53.685Z,100237.09
2023-02-17T16:47:39.093Z,100239.97
2023-02-17T16:50:32.451Z,100234.00
2023-02-17T16:53:12.852Z,100234.53
2023-02-17T16:55:57.327Z,100226.94
2023-02-17T16:58:36.167Z,100217.84
2023-02-17T17:01:34.188Z,100218.19
2023-02-17T17:04:16.489Z,100227.47
2023-02-17T17:07:01.400Z,100223.41
2023-02-17T17:10:06.841Z,100220.94
2023-02-17T17:12:57.228Z,100215.47
2023-02-17T17:15:45.566Z,100214.53
2023-02-17T17:18:35.911Z,100212.66
2023-02-17T17:21:21.110Z,100204.50
2023-02-17T17:23:56.867Z,100203.88
2023-02-17T17:26:49.265Z,100196.13
2023-02-17T17:29:28.376Z,100197.03
2023-02-17T17:32:15.970Z,100211.56
2023-02-17T17:34:56.129Z,100204.81
2023-02-17T17:37:42.379Z,100220.44
2023-02-17T17:40:34.413Z,100214.16
2023-02-17T17:43:20.303Z,100209.34
2023-02-17T17:46:01.507Z,100218.06
2023-02-17T17:48:44.593Z,100211.81
2023-02-17T17:51:26.300Z,100213.59
2023-02-17T17:54:07.677Z,100210.72
2023-02-17T17:56:52.109Z,100213.03
2023-02-17T17:59:48.989Z,100207.66
2023-02-17T18:02:38.391Z,100201.75
2023-02-17T18:05:20.880Z,100191.53
2023-02-17T18:08:20.539Z,100198.31
2023-02-17T18:11:04.384Z,100194.34
2023-02-17T18:13:53.444Z,100179.50
2023-02-17T18:16:42.579Z,100181.34
2023-02-17T18:19:23.269Z,100179.16
2023-02-17T18:22:11.029Z,100183.03
2023-02-17T18:25:04.281Z,100178.47
2023-02-17T18:28:00.440Z,100174.09
2023-02-17T18:30:50.422Z,100167.78
2023-02-17T18:33:31.112Z,100182.53
2023-02-17T18:36:27.027Z,100172.84
2023-02-17T18:39:11.598Z,100175.63
2023-02-17T18:42:05.181Z,100177.56
2023-02-17T18:44:46.887Z,100176.16
2023-02-17T18:47:33.163Z,100164.28
2023-02-17T18:50:24.777Z,100168.84
2023-02-17T18:53:17.777Z,100168.41
2023-02-17T18:55:54.939Z,100162.53
2023-02-17T18:58:33.076Z,100161.16
2023-02-17T19:01:34.956Z,100152.44
2023-02-17T19:04:20.854Z,100151.59
2023-02-17T19:07:10.846Z,100144.50
2023-02-17T19:09:54.680Z,100146.69
2023-02-17T19:12:34.326Z,100141.00
2023-02-17T19:15:20.651Z,100138.34
2023-02-17T19:18:01.310Z,100138.38
2023-02-17T19:20:42.103Z,100141.72
2023-02-17T19:23:29.280Z,100143.81
2023-02-17T19:26:12.533Z,100143.09
2023-02-17T19:28:54.748Z,100140.41
2023-02-17T19:31:30.270Z,100134.66
2023-02-17T19:34:15.712Z,100136.16
2023-02-17T19:36:57.362Z,100136.44
2023-02-17T19:39:49.706Z,100126.72
2023-02-17T19:42:33.176Z,100125.31
2023-02-17T19:45:14.185Z,100115.44
2023-02-17T19:47:54.772Z,100120.03
2023-02-17T19:50:47.231Z,100103.78
2023-02-17T19:53:26.334Z,100104.16
2023-02-17T19:56:29.244Z,100094.94
2023-02-17T19:59:17.127Z,100093.06
2023-02-17T20:02:08.220Z,100086.63
2023-02-17T20:04:48.819Z,100075.81
2023-02-17T20:07:50.689Z,100067.16
2023-02-17T20:10:37.505Z,100063.94
2023-02-17T20:13:12.774Z,100054.56
2023-02-17T20:16:10.553Z,100052.81
2023-02-17T20:18:55.565Z,100052.88
2023-02-17T20:21:35.818Z,100044.56
2023-02-17T20:24:24.801Z,100032.56
2023-02-17T20:27:05.571Z,100029.22
2023-02-17T20:29:53.902Z,100023.91
2023-02-17T20:32:52.793Z,100028.63
2023-02-17T20:35:45.308Z,100021.91
2023-02-17T20:38:32.728Z,100021.13
2023-02-17T20:41:25.099Z,100023.75
2023-02-17T20:44:05.837Z,100016.25
2023-02-17T20:46:55.160Z,100012.09
2023-02-17T20:49:36.472Z,100013.16
2023-02-17T20:52:15.050Z,100013.47
2023-02-17T20:54:55.827Z,100010.13
2023-02-17T20:57:42.184Z,100011.63
2023-02-17T21:00:29.313Z,100020.28
2023-02-17T21:03:23.644Z,100015.75
2023-02-17T21:06:23.213Z,100022.59
2023-02-17T21:09:08.186Z,100026.69
2023-02-17T21:11:48.944Z,100026.84
2023-02-17T21:14:50.017Z,100030.94
2023-02-17T21:17:31.786Z,100018.63
2023-02-17T21:20:21.961Z,100016.63
2023-02-17T21:23:05.582Z,100019.22
2023-02-17T21:25:48.704Z,100019.22
2023-02-17T21:28:39.758Z,100025.19
2023-02-17T21:31:21.909Z,100017.84
2023-02-17T21:34:09.126Z,100021.63
2023-02-17T21:36:57.234Z,100025.41
2023-02-17T21:39:32.356Z,100026.63
2023-02-17T21:42:15.466Z,100018.09
2023-02-17T21:45:05.457Z,100022.00
2023-02-17T21:47:47.932Z,100022.19
2023-02-17T21:50:27.342Z,100015.47
2023-02-17T21:53:10.431Z,100009.81
2023-02-17T21:55:54.276Z,100023.13
2023-02-17T21:58:34.802Z,100020.81
2023-02-17T22:01:12.742Z,100008.13
2023-02-17T22:03:51.445Z,100019.28
2023-02-17T22:06:35.295Z,100036.03
2023-02-17T22:09:17.244Z,100036.31
2023-02-17T22:12:03.056Z,100039.16
2023-02-17T22:14:48.221Z,100038.09
2023-02-17T22:17:29.255Z,100031.59
2023-02-17T22:20:15.342Z,100018.78
2023-02-17T22:22:54.271Z,100007.47
2023-02-17T22:25:28.318Z,100016.69
2023-02-17T22:28:07.696Z,100016.03
2023-02-17T22:30:55.449Z,100018.84
2023-02-17T22:33:39.020Z,100011.97
2023-02-17T22:36:27.669Z,100026.13
2023-02-17T22:39:11.944Z,100028.94
2023-02-17T22:41:49.683Z,100012.66
2023-02-17T22:44:30.493Z,100020.56
2023-02-17T22:47:11.148Z,100016.94
2023-02-17T22:49:44.487Z,100023.44
2023-02-17T22:52:16.628Z,100035.34
2023-02-17T22:55:02.427Z,100019.59
2023-02-17T22:57:42.604Z,100006.34
2023-02-17T23:00:19.251Z,100002.06
2023-02-17T23:03:03.645Z,100007.75
2023-02-17T23:05:39.420Z,100004.22
2023-02-17T23:08:27.596Z,99991.88
2023-02-17T23:11:43.402Z,99994.59
2023-02-17T23:14:27.157Z,99991.97
2023-02-17T23:17:10.497Z,99980.16
2023-02-17T23:19:48.645Z,99985.41
2023-02-17T23:22:27.006Z,99974.75
2023-02-17T23:25:13.636Z,99962.69
2023-02-17T23:27:57.414Z,99981.50
2023-02-17T23:30:47.977Z,99971.50
2023-02-17T23:33:31.727Z,99984.84
2023-02-17T23:36:17.931Z,99975.41
2023-02-17T23:39:03.758Z,99974.28
2023-02-17T23:41:39.473Z,99973.81
2023-02-17T23:44:26.602Z,99956.63
2023-02-17T23:47:06.225Z,99974.66
2023-02-17T23:49:44.209Z,99967.19
2023-02-17T23:52:19.652Z,99958.88
2023-02-17T23:55:00.005Z,99953.06
2023-02-17T23:57:41.332Z,99964.75
